Glacier Park International Airport
KGPI : now visible

Airfield :











YOU CAN JOIN US ON...

 
LOGIN :

Register | Disclaimer

   EN    FR    IT 

 









Legend :    VFR   Marginal VFR   IFR   Intensive IFR   Very Intensive IFR
Visi :
Ceiling :
>= 8 km
>= 3000ft
5 to 8 km
1000 to 3000 ft
1500m to 5 km
500 to 1000 ft
800 to 1500m
200 to 500 ft
< 800m
< 200 ft
Symbols :   Thunderstorms  Fog  Heavy snow  Heavy precipitations  Wind > 20 kt






- Airport Elevation : 2977 ft
- IATA code : FCA


KGPI - Glacier Park International

CURRENT METAR :
  • 071955Z 23015G24KT 10SM CLR 12/M05 A2991 RMK AO2 SLP133 T01221050

EXPIRED METARs :
  • 071855Z 20015G21KT 10SM CLR 12/M04 A2992 RMK AO2 SLP142 T01171039
  • 071755Z 22010G17KT 10SM SCT070 10/M04 A2993 RMK AO2 SLP144 T01001044 10106 20033 53017

TAF KGPI
Valid from the 07 at 18:00 until the 08 at 18:00 UTC


071720Z 0718/0818 24011G22KT P6SM SCT060
FM080300 23010KT P6SM FEW250
FM080500 35006KT P6SM FEW250



MET'MAP, your aeronautical weather chart ! - Copyright ORBIFLY December 2007 - Disclaimer

ORBIFLY MET'MAP TEAM :

Programming & Development : Alexandra Zaïnal
Concept & original design : Baudouin d'Aumeries
Assistance for programming : Marc-Olivier Méhu
Technical & hardware support : Manuel Goepfert

Contact : metmap@orbifly.com




SOURCES & CREDITS :

   NOAA       Earth
Advisory